sensor_id;sensor_type;location;lat;lon;timestamp;temperature;humidity
26541;DHT22;14206;50.202;10.948;2023-03-14T00:01:16;10.00;96.60
26541;DHT22;14206;50.202;10.948;2023-03-14T00:03:43;10.00;96.60
26541;DHT22;14206;50.202;10.948;2023-03-14T00:06:11;10.00;96.60
26541;DHT22;14206;50.202;10.948;2023-03-14T00:08:38;10.00;96.60
26541;DHT22;14206;50.202;10.948;2023-03-14T00:11:10;10.00;96.60
26541;DHT22;14206;50.202;10.948;2023-03-14T00:13:37;10.00;96.60
26541;DHT22;14206;50.202;10.948;2023-03-14T00:16:06;10.00;96.60
26541;DHT22;14206;50.202;10.948;2023-03-14T00:18:33;10.00;96.60
26541;DHT22;14206;50.202;10.948;2023-03-14T00:21:02;10.00;96.60
26541;DHT22;14206;50.202;10.948;2023-03-14T00:23:30;10.00;96.60
26541;DHT22;14206;50.202;10.948;2023-03-14T00:26:05;10.00;96.60
26541;DHT22;14206;50.202;10.948;2023-03-14T00:28:32;10.00;96.60
26541;DHT22;14206;50.202;10.948;2023-03-14T00:31:04;10.10;96.60
26541;DHT22;14206;50.202;10.948;2023-03-14T00:33:33;10.10;96.60
26541;DHT22;14206;50.202;10.948;2023-03-14T00:36:05;10.10;96.60
26541;DHT22;14206;50.202;10.948;2023-03-14T00:38:33;10.10;96.60
26541;DHT22;14206;50.202;10.948;2023-03-14T00:41:03;10.10;96.60
26541;DHT22;14206;50.202;10.948;2023-03-14T00:43:30;10.10;96.60
26541;DHT22;14206;50.202;10.948;2023-03-14T00:45:57;10.10;96.60
26541;DHT22;14206;50.202;10.948;2023-03-14T00:48:26;10.10;96.60
26541;DHT22;14206;50.202;10.948;2023-03-14T00:50:53;10.00;96.60
26541;DHT22;14206;50.202;10.948;2023-03-14T00:53:20;10.00;96.60
26541;DHT22;14206;50.202;10.948;2023-03-14T00:55:47;10.00;96.60
26541;DHT22;14206;50.202;10.948;2023-03-14T00:58:16;10.00;96.60
26541;DHT22;14206;50.202;10.948;2023-03-14T01:00:44;10.00;96.60
26541;DHT22;14206;50.202;10.948;2023-03-14T01:03:12;10.00;96.60
26541;DHT22;14206;50.202;10.948;2023-03-14T01:05:40;10.00;96.60
26541;DHT22;14206;50.202;10.948;2023-03-14T01:08:07;10.00;96.60
26541;DHT22;14206;50.202;10.948;2023-03-14T01:10:38;10.00;96.60
26541;DHT22;14206;50.202;10.948;2023-03-14T01:13:05;10.00;96.60
26541;DHT22;14206;50.202;10.948;2023-03-14T01:15:33;9.90;96.60
26541;DHT22;14206;50.202;10.948;2023-03-14T01:18:01;9.90;96.60
26541;DHT22;14206;50.202;10.948;2023-03-14T01:20:28;9.90;96.60
26541;DHT22;14206;50.202;10.948;2023-03-14T01:22:55;9.90;96.60
26541;DHT22;14206;50.202;10.948;2023-03-14T01:25:22;9.90;96.60
26541;DHT22;14206;50.202;10.948;2023-03-14T01:27:49;9.90;96.60
26541;DHT22;14206;50.202;10.948;2023-03-14T01:30:16;9.90;96.60
26541;DHT22;14206;50.202;10.948;2023-03-14T01:32:43;9.90;96.60
26541;DHT22;14206;50.202;10.948;2023-03-14T01:35:10;10.00;96.60
26541;DHT22;14206;50.202;10.948;2023-03-14T01:37:37;10.00;96.60
26541;DHT22;14206;50.202;10.948;2023-03-14T01:40:09;9.90;96.60
26541;DHT22;14206;50.202;10.948;2023-03-14T01:42:36;9.90;96.60
26541;DHT22;14206;50.202;10.948;2023-03-14T01:45:03;9.90;96.60
26541;DHT22;14206;50.202;10.948;2023-03-14T01:47:30;9.90;96.60
26541;DHT22;14206;50.202;10.948;2023-03-14T01:50:08;9.90;96.60
26541;DHT22;14206;50.202;10.948;2023-03-14T01:52:41;9.90;96.60
26541;DHT22;14206;50.202;10.948;2023-03-14T01:55:23;9.90;96.60
26541;DHT22;14206;50.202;10.948;2023-03-14T01:57:59;9.90;96.60
26541;DHT22;14206;50.202;10.948;2023-03-14T02:00:27;9.90;96.60
26541;DHT22;14206;50.202;10.948;2023-03-14T02:02:58;9.90;96.60
26541;DHT22;14206;50.202;10.948;2023-03-14T02:05:32;10.00;96.60
26541;DHT22;14206;50.202;10.948;2023-03-14T02:08:04;10.00;96.60
26541;DHT22;14206;50.202;10.948;2023-03-14T02:10:42;10.00;96.60
26541;DHT22;14206;50.202;10.948;2023-03-14T02:13:11;10.10;96.60
26541;DHT22;14206;50.202;10.948;2023-03-14T02:15:49;10.10;96.60
26541;DHT22;14206;50.202;10.948;2023-03-14T02:18:39;10.10;96.60
26541;DHT22;14206;50.202;10.948;2023-03-14T02:21:36;10.10;96.60
26541;DHT22;14206;50.202;10.948;2023-03-14T02:27:17;10.30;96.60
26541;DHT22;14206;50.202;10.948;2023-03-14T02:29:51;10.30;96.60
26541;DHT22;14206;50.202;10.948;2023-03-14T02:32:21;10.30;96.60
26541;DHT22;14206;50.202;10.948;2023-03-14T02:34:54;10.30;96.60
26541;DHT22;14206;50.202;10.948;2023-03-14T02:37:27;10.30;96.60
26541;DHT22;14206;50.202;10.948;2023-03-14T02:39:55;10.30;96.60
26541;DHT22;14206;50.202;10.948;2023-03-14T02:42:22;10.30;96.60
26541;DHT22;14206;50.202;10.948;2023-03-14T02:45:35;10.40;96.60
26541;DHT22;14206;50.202;10.948;2023-03-14T02:47:48;10.40;96.60
26541;DHT22;14206;50.202;10.948;2023-03-14T02:50:20;10.40;96.60
26541;DHT22;14206;50.202;10.948;2023-03-14T02:52:47;10.40;96.60
26541;DHT22;14206;50.202;10.948;2023-03-14T02:55:14;10.40;96.60
26541;DHT22;14206;50.202;10.948;2023-03-14T02:57:44;10.40;96.60
26541;DHT22;14206;50.202;10.948;2023-03-14T03:00:11;10.50;96.60
26541;DHT22;14206;50.202;10.948;2023-03-14T03:02:38;10.40;96.60
26541;DHT22;14206;50.202;10.948;2023-03-14T03:05:05;10.40;96.60
26541;DHT22;14206;50.202;10.948;2023-03-14T03:07:32;10.40;96.60
26541;DHT22;14206;50.202;10.948;2023-03-14T03:09:59;10.40;96.60
26541;DHT22;14206;50.202;10.948;2023-03-14T03:12:26;10.40;96.60
26541;DHT22;14206;50.202;10.948;2023-03-14T03:14:52;10.40;96.60
26541;DHT22;14206;50.202;10.948;2023-03-14T03:17:19;10.40;96.60
26541;DHT22;14206;50.202;10.948;2023-03-14T03:19:46;10.40;96.60
26541;DHT22;14206;50.202;10.948;2023-03-14T03:22:13;10.40;96.60
26541;DHT22;14206;50.202;10.948;2023-03-14T03:24:40;10.40;96.60
26541;DHT22;14206;50.202;10.948;2023-03-14T03:27:07;10.40;96.60
26541;DHT22;14206;50.202;10.948;2023-03-14T03:29:34;10.40;96.60
26541;DHT22;14206;50.202;10.948;2023-03-14T03:32:01;10.30;96.60
26541;DHT22;14206;50.202;10.948;2023-03-14T03:34:28;10.30;96.60
26541;DHT22;14206;50.202;10.948;2023-03-14T03:36:56;10.20;96.60
26541;DHT22;14206;50.202;10.948;2023-03-14T03:39:25;10.20;96.60
26541;DHT22;14206;50.202;10.948;2023-03-14T03:41:52;10.20;96.60
26541;DHT22;14206;50.202;10.948;2023-03-14T03:44:19;10.20;96.60
26541;DHT22;14206;50.202;10.948;2023-03-14T03:46:46;10.20;96.60
26541;DHT22;14206;50.202;10.948;2023-03-14T03:49:13;10.10;96.60
26541;DHT22;14206;50.202;10.948;2023-03-14T03:51:40;10.10;96.60
26541;DHT22;14206;50.202;10.948;2023-03-14T03:54:07;10.00;96.60
26541;DHT22;14206;50.202;10.948;2023-03-14T03:56:34;10.10;96.60
26541;DHT22;14206;50.202;10.948;2023-03-14T03:59:01;10.10;96.60
26541;DHT22;14206;50.202;10.948;2023-03-14T04:01:28;10.10;96.60
26541;DHT22;14206;50.202;10.948;2023-03-14T04:03:57;10.10;96.60
26541;DHT22;14206;50.202;10.948;2023-03-14T04:06:25;10.20;96.60
26541;DHT22;14206;50.202;10.948;2023-03-14T04:08:54;10.20;96.60
26541;DHT22;14206;50.202;10.948;2023-03-14T04:11:54;10.30;96.60
26541;DHT22;14206;50.202;10.948;2023-03-14T04:14:21;10.30;96.60
26541;DHT22;14206;50.202;10.948;2023-03-14T04:16:55;10.40;96.60
26541;DHT22;14206;50.202;10.948;2023-03-14T04:19:22;10.50;96.60
26541;DHT22;14206;50.202;10.948;2023-03-14T04:21:51;10.50;96.60
26541;DHT22;14206;50.202;10.948;2023-03-14T04:24:19;10.50;96.60
26541;DHT22;14206;50.202;10.948;2023-03-14T04:26:48;10.40;96.60
26541;DHT22;14206;50.202;10.948;2023-03-14T04:29:15;10.40;96.60
26541;DHT22;14206;50.202;10.948;2023-03-14T04:31:44;10.40;96.60
26541;DHT22;14206;50.202;10.948;2023-03-14T04:34:11;10.40;96.60
26541;DHT22;14206;50.202;10.948;2023-03-14T04:36:47;10.30;96.60
26541;DHT22;14206;50.202;10.948;2023-03-14T04:39:18;10.30;96.60
26541;DHT22;14206;50.202;10.948;2023-03-14T04:41:52;10.30;96.60
26541;DHT22;14206;50.202;10.948;2023-03-14T04:44:19;10.20;96.60
26541;DHT22;14206;50.202;10.948;2023-03-14T04:46:49;10.20;96.60
26541;DHT22;14206;50.202;10.948;2023-03-14T04:49:17;10.20;96.60
26541;DHT22;14206;50.202;10.948;2023-03-14T04:51:44;10.30;96.60
26541;DHT22;14206;50.202;10.948;2023-03-14T04:54:11;10.30;96.60
26541;DHT22;14206;50.202;10.948;2023-03-14T04:56:38;10.30;96.60
26541;DHT22;14206;50.202;10.948;2023-03-14T04:59:05;10.40;96.60
26541;DHT22;14206;50.202;10.948;2023-03-14T05:01:34;10.40;96.60
26541;DHT22;14206;50.202;10.948;2023-03-14T05:04:19;10.40;96.60
26541;DHT22;14206;50.202;10.948;2023-03-14T05:06:58;10.40;96.60
26541;DHT22;14206;50.202;10.948;2023-03-14T05:09:43;10.40;96.60
26541;DHT22;14206;50.202;10.948;2023-03-14T05:12:22;10.40;96.60
26541;DHT22;14206;50.202;10.948;2023-03-14T05:14:53;10.30;96.60
26541;DHT22;14206;50.202;10.948;2023-03-14T05:17:55;10.30;96.60
26541;DHT22;14206;50.202;10.948;2023-03-14T05:20:37;10.30;96.60
26541;DHT22;14206;50.202;10.948;2023-03-14T05:23:19;10.20;96.60
26541;DHT22;14206;50.202;10.948;2023-03-14T05:25:59;10.20;96.60
26541;DHT22;14206;50.202;10.948;2023-03-14T05:28:29;10.20;96.60
26541;DHT22;14206;50.202;10.948;2023-03-14T05:31:14;10.20;96.60
26541;DHT22;14206;50.202;10.948;2023-03-14T05:33:41;10.20;96.60
26541;DHT22;14206;50.202;10.948;2023-03-14T05:36:28;10.20;96.60
26541;DHT22;14206;50.202;10.948;2023-03-14T05:39:11;10.20;96.60
26541;DHT22;14206;50.202;10.948;2023-03-14T05:41:56;10.20;96.60
26541;DHT22;14206;50.202;10.948;2023-03-14T05:44:49;10.20;96.60
26541;DHT22;14206;50.202;10.948;2023-03-14T05:47:35;10.30;96.60
26541;DHT22;14206;50.202;10.948;2023-03-14T05:50:26;10.30;96.60
26541;DHT22;14206;50.202;10.948;2023-03-14T05:53:03;10.30;96.60
26541;DHT22;14206;50.202;10.948;2023-03-14T05:55:42;10.30;96.60
26541;DHT22;14206;50.202;10.948;2023-03-14T05:58:17;10.30;96.60
26541;DHT22;14206;50.202;10.948;2023-03-14T06:01:04;10.30;96.60
26541;DHT22;14206;50.202;10.948;2023-03-14T06:03:42;10.40;96.60
26541;DHT22;14206;50.202;10.948;2023-03-14T06:06:10;10.40;96.60
26541;DHT22;14206;50.202;10.948;2023-03-14T06:08:36;10.40;96.60
26541;DHT22;14206;50.202;10.948;2023-03-14T06:11:04;10.40;96.60
26541;DHT22;14206;50.202;10.948;2023-03-14T06:13:31;10.40;96.60
26541;DHT22;14206;50.202;10.948;2023-03-14T06:15:58;10.30;96.60
26541;DHT22;14206;50.202;10.948;2023-03-14T06:18:25;10.30;96.60
26541;DHT22;14206;50.202;10.948;2023-03-14T06:20:54;10.30;96.60
26541;DHT22;14206;50.202;10.948;2023-03-14T06:23:24;10.30;96.60
26541;DHT22;14206;50.202;10.948;2023-03-14T06:25:52;10.20;96.60
26541;DHT22;14206;50.202;10.948;2023-03-14T06:28:22;10.20;96.60
26541;DHT22;14206;50.202;10.948;2023-03-14T06:30:51;10.20;96.60
26541;DHT22;14206;50.202;10.948;2023-03-14T06:33:18;10.20;96.60
26541;DHT22;14206;50.202;10.948;2023-03-14T06:35:45;10.30;96.60
26541;DHT22;14206;50.202;10.948;2023-03-14T06:38:12;10.30;96.60
26541;DHT22;14206;50.202;10.948;2023-03-14T06:40:40;10.30;96.60
26541;DHT22;14206;50.202;10.948;2023-03-14T06:43:17;10.40;96.60
26541;DHT22;14206;50.202;10.948;2023-03-14T06:45:45;10.40;96.60
26541;DHT22;14206;50.202;10.948;2023-03-14T06:48:12;10.50;96.60
26541;DHT22;14206;50.202;10.948;2023-03-14T06:50:48;10.50;96.60
26541;DHT22;14206;50.202;10.948;2023-03-14T06:53:15;10.60;96.60
26541;DHT22;14206;50.202;10.948;2023-03-14T06:55:43;10.60;96.50
26541;DHT22;14206;50.202;10.948;2023-03-14T06:58:10;10.70;96.60
26541;DHT22;14206;50.202;10.948;2023-03-14T07:00:42;10.70;96.60
26541;DHT22;14206;50.202;10.948;2023-03-14T07:03:14;10.70;96.60
26541;DHT22;14206;50.202;10.948;2023-03-14T07:05:44;10.70;96.60
26541;DHT22;14206;50.202;10.948;2023-03-14T07:08:11;10.70;96.40
26541;DHT22;14206;50.202;10.948;2023-03-14T07:10:38;10.70;95.90
26541;DHT22;14206;50.202;10.948;2023-03-14T07:13:06;10.70;95.80
26541;DHT22;14206;50.202;10.948;2023-03-14T07:15:38;10.70;95.70
26541;DHT22;14206;50.202;10.948;2023-03-14T07:18:08;10.70;95.80
26541;DHT22;14206;50.202;10.948;2023-03-14T07:20:35;10.70;95.70
26541;DHT22;14206;50.202;10.948;2023-03-14T07:23:03;10.80;95.00
26541;DHT22;14206;50.202;10.948;2023-03-14T07:25:39;10.90;95.00
26541;DHT22;14206;50.202;10.948;2023-03-14T07:28:07;11.00;94.50
26541;DHT22;14206;50.202;10.948;2023-03-14T07:30:37;11.10;94.20
26541;DHT22;14206;50.202;10.948;2023-03-14T07:33:10;11.10;93.60
26541;DHT22;14206;50.202;10.948;2023-03-14T07:35:37;11.20;93.50
26541;DHT22;14206;50.202;10.948;2023-03-14T07:38:05;11.30;93.10
26541;DHT22;14206;50.202;10.948;2023-03-14T07:40:37;11.40;92.50
26541;DHT22;14206;50.202;10.948;2023-03-14T07:43:05;11.40;91.60
26541;DHT22;14206;50.202;10.948;2023-03-14T07:45:46;11.50;91.70
26541;DHT22;14206;50.202;10.948;2023-03-14T07:48:17;11.50;91.60
26541;DHT22;14206;50.202;10.948;2023-03-14T07:50:44;11.50;91.50
26541;DHT22;14206;50.202;10.948;2023-03-14T07:53:10;11.50;91.70
26541;DHT22;14206;50.202;10.948;2023-03-14T07:55:39;11.50;92.20
26541;DHT22;14206;50.202;10.948;2023-03-14T07:58:06;11.60;92.10
26541;DHT22;14206;50.202;10.948;2023-03-14T08:00:33;11.60;91.60
26541;DHT22;14206;50.202;10.948;2023-03-14T08:02:59;11.60;90.30
26541;DHT22;14206;50.202;10.948;2023-03-14T08:05:27;11.60;90.40
26541;DHT22;14206;50.202;10.948;2023-03-14T08:07:53;11.70;91.10
26541;DHT22;14206;50.202;10.948;2023-03-14T08:10:20;11.70;90.50
26541;DHT22;14206;50.202;10.948;2023-03-14T08:12:52;11.80;91.50
26541;DHT22;14206;50.202;10.948;2023-03-14T08:15:20;12.00;91.10
26541;DHT22;14206;50.202;10.948;2023-03-14T08:17:46;12.10;90.90
26541;DHT22;14206;50.202;10.948;2023-03-14T08:20:18;12.10;90.70
26541;DHT22;14206;50.202;10.948;2023-03-14T08:22:45;12.20;91.30
26541;DHT22;14206;50.202;10.948;2023-03-14T08:25:11;12.30;90.30
26541;DHT22;14206;50.202;10.948;2023-03-14T08:27:38;12.50;90.10
26541;DHT22;14206;50.202;10.948;2023-03-14T08:30:07;12.60;89.50
26541;DHT22;14206;50.202;10.948;2023-03-14T08:32:34;12.60;89.30
26541;DHT22;14206;50.202;10.948;2023-03-14T08:35:02;12.50;89.70
26541;DHT22;14206;50.202;10.948;2023-03-14T08:37:32;12.30;89.00
26541;DHT22;14206;50.202;10.948;2023-03-14T08:39:59;12.20;90.10
26541;DHT22;14206;50.202;10.948;2023-03-14T08:42:25;12.10;90.40
26541;DHT22;14206;50.202;10.948;2023-03-14T08:44:53;12.00;90.30
26541;DHT22;14206;50.202;10.948;2023-03-14T08:47:19;12.00;91.00
26541;DHT22;14206;50.202;10.948;2023-03-14T08:49:46;12.00;90.30
26541;DHT22;14206;50.202;10.948;2023-03-14T08:52:13;12.00;90.80
26541;DHT22;14206;50.202;10.948;2023-03-14T08:54:43;12.10;90.60
26541;DHT22;14206;50.202;10.948;2023-03-14T08:57:10;12.10;90.30
26541;DHT22;14206;50.202;10.948;2023-03-14T08:59:36;12.10;88.00
26541;DHT22;14206;50.202;10.948;2023-03-14T09:02:03;12.00;88.00
26541;DHT22;14206;50.202;10.948;2023-03-14T09:04:31;12.00;88.60
26541;DHT22;14206;50.202;10.948;2023-03-14T09:06:59;11.90;88.00
26541;DHT22;14206;50.202;10.948;2023-03-14T09:09:26;11.90;88.00
26541;DHT22;14206;50.202;10.948;2023-03-14T09:11:59;11.90;88.90
26541;DHT22;14206;50.202;10.948;2023-03-14T09:14:26;11.90;88.70
26541;DHT22;14206;50.202;10.948;2023-03-14T09:16:53;11.80;88.40
26541;DHT22;14206;50.202;10.948;2023-03-14T09:19:20;11.80;89.30
26541;DHT22;14206;50.202;10.948;2023-03-14T09:21:47;11.70;89.00
26541;DHT22;14206;50.202;10.948;2023-03-14T09:24:14;11.70;88.70
26541;DHT22;14206;50.202;10.948;2023-03-14T09:26:41;11.60;88.80
26541;DHT22;14206;50.202;10.948;2023-03-14T09:29:08;11.60;89.80
26541;DHT22;14206;50.202;10.948;2023-03-14T09:31:34;11.60;88.80
26541;DHT22;14206;50.202;10.948;2023-03-14T09:34:02;11.60;89.80
26541;DHT22;14206;50.202;10.948;2023-03-14T09:36:30;11.60;89.20
26541;DHT22;14206;50.202;10.948;2023-03-14T09:38:57;11.60;89.60
26541;DHT22;14206;50.202;10.948;2023-03-14T09:41:33;11.60;89.60
26541;DHT22;14206;50.202;10.948;2023-03-14T09:44:02;11.60;90.20
26541;DHT22;14206;50.202;10.948;2023-03-14T09:46:30;11.70;90.90
26541;DHT22;14206;50.202;10.948;2023-03-14T09:48:59;11.70;90.70
26541;DHT22;14206;50.202;10.948;2023-03-14T09:51:26;11.90;90.30
26541;DHT22;14206;50.202;10.948;2023-03-14T09:53:53;12.10;90.20
26541;DHT22;14206;50.202;10.948;2023-03-14T09:56:26;12.20;89.80
26541;DHT22;14206;50.202;10.948;2023-03-14T09:58:59;12.40;89.80
26541;DHT22;14206;50.202;10.948;2023-03-14T10:01:29;12.60;88.50
26541;DHT22;14206;50.202;10.948;2023-03-14T10:04:02;12.60;89.10
26541;DHT22;14206;50.202;10.948;2023-03-14T10:06:32;12.70;87.80
26541;DHT22;14206;50.202;10.948;2023-03-14T10:08:58;12.70;87.60
26541;DHT22;14206;50.202;10.948;2023-03-14T10:11:25;12.70;87.60
26541;DHT22;14206;50.202;10.948;2023-03-14T10:14:06;12.70;86.70
26541;DHT22;14206;50.202;10.948;2023-03-14T10:16:36;12.70;86.70
26541;DHT22;14206;50.202;10.948;2023-03-14T10:19:12;12.70;87.00
26541;DHT22;14206;50.202;10.948;2023-03-14T10:21:43;12.90;87.20
26541;DHT22;14206;50.202;10.948;2023-03-14T10:26:48;13.10;85.60
26541;DHT22;14206;50.202;10.948;2023-03-14T10:29:15;13.00;85.70
26541;DHT22;14206;50.202;10.948;2023-03-14T10:31:54;13.10;85.60
26541;DHT22;14206;50.202;10.948;2023-03-14T10:34:27;13.30;85.50
26541;DHT22;14206;50.202;10.948;2023-03-14T10:37:04;13.30;84.90
26541;DHT22;14206;50.202;10.948;2023-03-14T10:39:47;13.10;84.80
26541;DHT22;14206;50.202;10.948;2023-03-14T10:42:25;13.10;84.80
26541;DHT22;14206;50.202;10.948;2023-03-14T10:44:58;13.00;85.00
26541;DHT22;14206;50.202;10.948;2023-03-14T10:47:27;13.00;84.20
26541;DHT22;14206;50.202;10.948;2023-03-14T10:49:56;13.00;83.30
26541;DHT22;14206;50.202;10.948;2023-03-14T10:52:25;13.10;83.80
26541;DHT22;14206;50.202;10.948;2023-03-14T10:55:12;13.20;84.60
26541;DHT22;14206;50.202;10.948;2023-03-14T10:57:43;13.40;82.80
26541;DHT22;14206;50.202;10.948;2023-03-14T11:00:20;13.60;81.80
26541;DHT22;14206;50.202;10.948;2023-03-14T11:11:23;13.50;83.90
26541;DHT22;14206;50.202;10.948;2023-03-14T11:16:46;13.30;84.90
26541;DHT22;14206;50.202;10.948;2023-03-14T11:27:29;15.20;80.30
26541;DHT22;14206;50.202;10.948;2023-03-14T11:32:43;15.80;79.30
26541;DHT22;14206;50.202;10.948;2023-03-14T11:35:24;16.10;77.00
26541;DHT22;14206;50.202;10.948;2023-03-14T11:40:48;15.80;78.30
26541;DHT22;14206;50.202;10.948;2023-03-14T11:43:24;15.90;78.30
26541;DHT22;14206;50.202;10.948;2023-03-14T11:46:04;15.90;77.90
26541;DHT22;14206;50.202;10.948;2023-03-14T11:51:25;16.00;77.70
26541;DHT22;14206;50.202;10.948;2023-03-14T11:54:01;16.00;78.50
26541;DHT22;14206;50.202;10.948;2023-03-14T11:56:37;15.70;77.80
26541;DHT22;14206;50.202;10.948;2023-03-14T11:59:15;15.40;78.50
26541;DHT22;14206;50.202;10.948;2023-03-14T12:07:25;14.80;81.10
26541;DHT22;14206;50.202;10.948;2023-03-14T12:09:55;14.90;81.20
26541;DHT22;14206;50.202;10.948;2023-03-14T12:12:24;15.00;78.90
26541;DHT22;14206;50.202;10.948;2023-03-14T12:15:01;14.70;79.50
26541;DHT22;14206;50.202;10.948;2023-03-14T12:17:40;14.40;80.10
26541;DHT22;14206;50.202;10.948;2023-03-14T12:22:51;13.80;82.30
26541;DHT22;14206;50.202;10.948;2023-03-14T12:25:28;13.80;82.40
26541;DHT22;14206;50.202;10.948;2023-03-14T12:30:38;13.70;83.10
26541;DHT22;14206;50.202;10.948;2023-03-14T12:38:55;13.30;84.80
26541;DHT22;14206;50.202;10.948;2023-03-14T12:43:46;13.20;86.50
26541;DHT22;14206;50.202;10.948;2023-03-14T12:48:45;13.00;87.80
26541;DHT22;14206;50.202;10.948;2023-03-14T12:51:15;13.00;88.90
26541;DHT22;14206;50.202;10.948;2023-03-14T12:53:55;12.80;90.70
26541;DHT22;14206;50.202;10.948;2023-03-14T12:56:47;12.70;90.20
26541;DHT22;14206;50.202;10.948;2023-03-14T13:04:43;12.40;92.90
26541;DHT22;14206;50.202;10.948;2023-03-14T13:07:13;12.30;93.50
26541;DHT22;14206;50.202;10.948;2023-03-14T13:10:02;12.10;94.00
26541;DHT22;14206;50.202;10.948;2023-03-14T13:12:37;12.00;95.10
26541;DHT22;14206;50.202;10.948;2023-03-14T13:15:26;12.00;94.80
26541;DHT22;14206;50.202;10.948;2023-03-14T13:17:59;12.10;94.60
26541;DHT22;14206;50.202;10.948;2023-03-14T13:20:35;12.00;94.90
26541;DHT22;14206;50.202;10.948;2023-03-14T13:23:03;12.00;94.80
26541;DHT22;14206;50.202;10.948;2023-03-14T13:25:33;11.90;95.20
26541;DHT22;14206;50.202;10.948;2023-03-14T13:28:01;11.60;96.50
26541;DHT22;14206;50.202;10.948;2023-03-14T13:30:59;11.50;96.60
26541;DHT22;14206;50.202;10.948;2023-03-14T13:33:27;11.40;96.60
26541;DHT22;14206;50.202;10.948;2023-03-14T13:35:59;11.20;96.60
26541;DHT22;14206;50.202;10.948;2023-03-14T13:38:28;11.10;96.60
26541;DHT22;14206;50.202;10.948;2023-03-14T13:40:57;11.00;96.60
26541;DHT22;14206;50.202;10.948;2023-03-14T13:43:33;11.00;96.60
26541;DHT22;14206;50.202;10.948;2023-03-14T13:46:02;11.00;96.60
26541;DHT22;14206;50.202;10.948;2023-03-14T13:48:30;11.00;96.60
26541;DHT22;14206;50.202;10.948;2023-03-14T13:51:03;11.00;96.60
26541;DHT22;14206;50.202;10.948;2023-03-14T13:53:31;11.00;96.60
26541;DHT22;14206;50.202;10.948;2023-03-14T13:56:02;11.00;96.60
26541;DHT22;14206;50.202;10.948;2023-03-14T13:58:31;10.90;96.60
26541;DHT22;14206;50.202;10.948;2023-03-14T14:01:10;10.80;96.60
26541;DHT22;14206;50.202;10.948;2023-03-14T14:03:41;10.80;96.60
26541;DHT22;14206;50.202;10.948;2023-03-14T14:06:23;10.70;96.60
26541;DHT22;14206;50.202;10.948;2023-03-14T14:08:52;10.60;96.60
26541;DHT22;14206;50.202;10.948;2023-03-14T14:11:28;10.50;96.60
26541;DHT22;14206;50.202;10.948;2023-03-14T14:14:18;10.50;96.60
26541;DHT22;14206;50.202;10.948;2023-03-14T14:16:47;10.40;96.60
26541;DHT22;14206;50.202;10.948;2023-03-14T14:19:19;10.30;96.60
26541;DHT22;14206;50.202;10.948;2023-03-14T14:21:48;10.30;96.60
26541;DHT22;14206;50.202;10.948;2023-03-14T14:24:16;10.30;96.60
26541;DHT22;14206;50.202;10.948;2023-03-14T14:27:00;10.40;96.60
26541;DHT22;14206;50.202;10.948;2023-03-14T14:29:28;10.50;96.60
26541;DHT22;14206;50.202;10.948;2023-03-14T14:34:41;10.50;96.60
26541;DHT22;14206;50.202;10.948;2023-03-14T14:37:25;10.40;96.60
26541;DHT22;14206;50.202;10.948;2023-03-14T14:39:59;10.30;96.60
26541;DHT22;14206;50.202;10.948;2023-03-14T14:42:30;10.20;96.60
26541;DHT22;14206;50.202;10.948;2023-03-14T14:44:58;10.20;96.60
26541;DHT22;14206;50.202;10.948;2023-03-14T14:47:27;10.20;96.50
26541;DHT22;14206;50.202;10.948;2023-03-14T14:49:59;10.30;96.60
26541;DHT22;14206;50.202;10.948;2023-03-14T14:52:44;10.30;96.10
26541;DHT22;14206;50.202;10.948;2023-03-14T14:55:17;10.40;96.00
26541;DHT22;14206;50.202;10.948;2023-03-14T14:57:54;10.40;96.40
26541;DHT22;14206;50.202;10.948;2023-03-14T15:00:25;10.40;96.30
26541;DHT22;14206;50.202;10.948;2023-03-14T15:02:54;10.40;96.60
26541;DHT22;14206;50.202;10.948;2023-03-14T15:05:25;10.40;96.20
26541;DHT22;14206;50.202;10.948;2023-03-14T15:07:52;10.30;96.00
26541;DHT22;14206;50.202;10.948;2023-03-14T15:10:21;10.20;96.10
26541;DHT22;14206;50.202;10.948;2023-03-14T15:12:49;10.20;95.90
26541;DHT22;14206;50.202;10.948;2023-03-14T15:15:17;10.20;95.30
26541;DHT22;14206;50.202;10.948;2023-03-14T15:17:44;10.20;95.40
26541;DHT22;14206;50.202;10.948;2023-03-14T15:20:14;10.30;95.30
26541;DHT22;14206;50.202;10.948;2023-03-14T15:22:41;10.40;95.50
26541;DHT22;14206;50.202;10.948;2023-03-14T15:25:09;10.60;94.70
26541;DHT22;14206;50.202;10.948;2023-03-14T15:27:48;10.60;93.60
26541;DHT22;14206;50.202;10.948;2023-03-14T15:30:15;10.70;93.70
26541;DHT22;14206;50.202;10.948;2023-03-14T15:32:42;10.60;93.60
26541;DHT22;14206;50.202;10.948;2023-03-14T15:35:09;10.60;93.50
26541;DHT22;14206;50.202;10.948;2023-03-14T15:37:36;10.50;93.00
26541;DHT22;14206;50.202;10.948;2023-03-14T15:40:04;10.40;92.60
26541;DHT22;14206;50.202;10.948;2023-03-14T15:42:38;10.30;93.00
26541;DHT22;14206;50.202;10.948;2023-03-14T15:45:05;10.20;93.30
26541;DHT22;14206;50.202;10.948;2023-03-14T15:47:32;10.10;93.30
26541;DHT22;14206;50.202;10.948;2023-03-14T15:49:59;10.10;93.50
26541;DHT22;14206;50.202;10.948;2023-03-14T15:52:26;10.00;93.30
26541;DHT22;14206;50.202;10.948;2023-03-14T15:54:52;9.90;95.10
26541;DHT22;14206;50.202;10.948;2023-03-14T15:57:19;9.80;94.30
26541;DHT22;14206;50.202;10.948;2023-03-14T15:59:46;9.70;95.30
26541;DHT22;14206;50.202;10.948;2023-03-14T16:02:13;9.50;96.00
26541;DHT22;14206;50.202;10.948;2023-03-14T16:04:40;9.50;96.60
26541;DHT22;14206;50.202;10.948;2023-03-14T16:07:07;9.40;96.60
26541;DHT22;14206;50.202;10.948;2023-03-14T16:09:34;9.30;96.60
26541;DHT22;14206;50.202;10.948;2023-03-14T16:12:01;9.10;96.60
26541;DHT22;14206;50.202;10.948;2023-03-14T16:14:27;8.70;96.10
26541;DHT22;14206;50.202;10.948;2023-03-14T16:16:54;8.30;96.40
26541;DHT22;14206;50.202;10.948;2023-03-14T16:19:26;8.00;96.60
26541;DHT22;14206;50.202;10.948;2023-03-14T16:21:52;7.70;96.60
26541;DHT22;14206;50.202;10.948;2023-03-14T16:24:19;7.50;96.60
26541;DHT22;14206;50.202;10.948;2023-03-14T16:26:46;7.40;96.60
26541;DHT22;14206;50.202;10.948;2023-03-14T16:29:14;7.30;96.60
26541;DHT22;14206;50.202;10.948;2023-03-14T16:31:42;7.20;96.60
26541;DHT22;14206;50.202;10.948;2023-03-14T16:34:09;7.20;96.60
26541;DHT22;14206;50.202;10.948;2023-03-14T16:36:37;7.10;96.60
26541;DHT22;14206;50.202;10.948;2023-03-14T16:39:04;7.20;96.60
26541;DHT22;14206;50.202;10.948;2023-03-14T16:41:31;7.20;96.60
26541;DHT22;14206;50.202;10.948;2023-03-14T16:43:58;7.20;96.60